Time;durP1;ratioP1;P1;durP2;ratioP2;P2;SDS_P1;SDS_P2;PMS_P1;PMS_P2;Temp;Humidity;BMP_temperature;BMP_pressure;BME280_temperature;BME280_humidity;BME280_pressure;Samples;Min_cycle;Max_cycle;Signal;HPM_P1;HPM_P2
2021/03/16 00:00:18;;;;;;;9.93;6.75;;;;;;;6.96;81.71;99430.50;2821104;83;21134;-66
2021/03/16 00:04:39;;;;;;;10.65;6.60;;;;;;;6.92;81.90;99425.96;2820123;84;21174;-66
2021/03/16 00:08:43;;;;;;;6.75;6.08;;;;;;;6.93;82.03;99434.25;2820897;84;21114;-66
2021/03/16 00:12:49;;;;;;;8.55;7.05;;;;;;;6.91;82.23;99434.86;2820946;84;21146;-67
2021/03/16 00:16:52;;;;;;;7.25;6.40;;;;;;;6.89;82.34;99439.43;2821054;84;21119;-66
2021/03/16 00:20:55;;;;;;;9.03;6.92;;;;;;;6.85;82.44;99431.36;2820936;83;21174;-67
2021/03/16 00:25:00;;;;;;;7.50;6.78;;;;;;;6.83;82.49;99440.76;2821346;84;21573;-66
2021/03/16 00:29:04;;;;;;;9.58;5.45;;;;;;;6.82;82.56;99437.75;2821245;83;21087;-66
2021/03/16 00:33:07;;;;;;;6.80;5.87;;;;;;;6.82;82.59;99443.51;2821171;83;21103;-66
2021/03/16 00:37:11;;;;;;;7.35;6.10;;;;;;;6.86;82.46;99444.94;2821471;84;21571;-66
2021/03/16 00:41:14;;;;;;;9.03;6.60;;;;;;;6.89;82.52;99444.72;2821391;84;21143;-66
2021/03/16 00:45:17;;;;;;;8.48;5.70;;;;;;;6.95;82.36;99449.50;2821401;84;21130;-66
2021/03/16 00:49:19;;;;;;;8.80;6.83;;;;;;;6.98;82.11;99445.78;2821098;84;21134;-66
2021/03/16 00:53:23;;;;;;;15.13;5.95;;;;;;;6.97;81.69;99452.86;2858377;83;21172;-67
2021/03/16 00:57:26;;;;;;;8.13;5.20;;;;;;;6.94;81.30;99449.15;2784287;85;21125;-66
2021/03/16 01:01:29;;;;;;;7.28;6.25;;;;;;;6.91;81.16;99453.83;2822912;84;21174;-66
2021/03/16 01:05:36;;;;;;;9.28;7.03;;;;;;;6.90;81.14;99446.86;2780102;85;21183;-67
2021/03/16 01:09:38;;;;;;;7.95;6.15;;;;;;;6.85;81.18;99448.55;2780060;85;21142;-66
2021/03/16 01:13:41;;;;;;;12.98;7.78;;;;;;;6.85;81.22;99455.16;2784165;85;21114;-67
2021/03/16 01:17:44;;;;;;;11.50;8.03;;;;;;;6.80;81.49;99454.69;2813341;84;21140;-67
2021/03/16 01:21:48;;;;;;;10.32;6.80;;;;;;;6.75;81.29;99459.51;2860400;83;21167;-66
2021/03/16 01:25:51;;;;;;;9.68;7.50;;;;;;;6.65;81.53;99456.75;2831180;84;21170;-67
2021/03/16 01:29:54;;;;;;;6.33;5.40;;;;;;;6.59;81.92;99452.78;2824564;84;21110;-66
2021/03/16 01:33:57;;;;;;;8.53;6.87;;;;;;;6.61;82.31;99444.75;2824081;84;21131;-66
2021/03/16 01:38:00;;;;;;;15.30;8.95;;;;;;;6.65;82.88;99445.69;2823757;84;21153;-66
2021/03/16 01:42:04;;;;;;;7.42;5.83;;;;;;;6.68;83.07;99452.08;2824602;84;21130;-66
2021/03/16 01:46:08;;;;;;;7.05;4.75;;;;;;;6.76;83.11;99447.97;2824422;84;21118;-65
2021/03/16 01:50:13;;;;;;;6.37;3.80;;;;;;;6.82;83.01;99448.80;2824472;84;21111;-65
2021/03/16 01:54:15;;;;;;;6.70;4.90;;;;;;;6.85;82.86;99456.48;2824677;84;21175;-65
2021/03/16 01:58:18;;;;;;;11.68;6.33;;;;;;;6.86;82.67;99459.02;2824516;84;21154;-65
2021/03/16 02:02:21;;;;;;;7.10;5.08;;;;;;;6.83;82.67;99460.58;2824412;84;21142;-66
2021/03/16 02:06:51;;;;;;;5.78;5.12;;;;;;;6.85;82.49;99456.01;2824293;84;21189;-65
2021/03/16 02:11:25;;;;;;;4.50;4.10;;;;;;;6.84;82.33;99461.41;2824565;84;21122;-65
2021/03/16 02:15:37;;;;;;;6.75;4.97;;;;;;;6.80;82.72;99462.63;2824356;84;21162;-65
2021/03/16 02:20:06;;;;;;;4.80;4.30;;;;;;;6.83;82.89;99461.05;2824219;84;29361;-66
2021/03/16 02:24:20;;;;;;;4.40;3.90;;;;;;;6.84;82.94;99465.38;2824334;84;21145;-65
2021/03/16 02:28:48;;;;;;;5.97;3.27;;;;;;;6.90;83.10;99463.58;2824580;84;21130;-65
2021/03/16 02:32:53;;;;;;;4.28;3.33;;;;;;;6.89;82.83;99467.19;2824112;84;21154;-66
2021/03/16 02:36:57;;;;;;;3.62;3.33;;;;;;;6.92;83.02;99469.59;2824311;84;21174;-66
2021/03/16 02:41:03;;;;;;;4.92;3.75;;;;;;;6.98;83.11;99471.73;2824334;84;21130;-65
2021/03/16 02:45:10;;;;;;;4.35;3.50;;;;;;;7.00;82.95;99474.27;2824159;84;21119;-65
2021/03/16 02:49:13;;;;;;;3.58;2.27;;;;;;;6.94;82.58;99471.62;2823897;84;21186;-65
2021/03/16 02:53:17;;;;;;;3.65;3.05;;;;;;;6.85;82.76;99478.48;2823985;84;21143;-65
2021/03/16 02:57:21;;;;;;;2.33;2.12;;;;;;;6.77;83.09;99486.16;2823726;84;21148;-66
2021/03/16 03:01:25;;;;;;;2.75;2.00;;;;;;;6.69;83.25;99487.26;2823936;84;21568;-65
2021/03/16 03:05:29;;;;;;;2.55;2.20;;;;;;;6.64;83.53;99496.86;2823884;84;21103;-65
2021/03/16 03:09:34;;;;;;;3.70;2.05;;;;;;;6.59;83.52;99506.95;2824311;84;21139;-66
2021/03/16 03:13:38;;;;;;;3.20;1.90;;;;;;;6.65;83.51;99508.28;2823790;84;21186;-65
2021/03/16 03:17:42;;;;;;;3.58;2.72;;;;;;;6.56;83.66;99516.45;2824247;84;21581;-66
2021/03/16 03:22:12;;;;;;;3.65;2.35;;;;;;;6.49;84.13;99522.69;2824038;84;21604;-66
2021/03/16 03:26:43;;;;;;;3.60;2.72;;;;;;;6.44;84.42;99524.84;2823968;84;21195;-65
2021/03/16 03:30:47;;;;;;;2.85;1.72;;;;;;;6.45;84.71;99533.13;2824047;84;21147;-65
2021/03/16 03:34:51;;;;;;;2.47;1.90;;;;;;;6.46;84.78;99528.67;2824219;84;21166;-65
2021/03/16 03:38:54;;;;;;;3.35;1.92;;;;;;;6.49;84.61;99537.70;2823976;84;21154;-65
2021/03/16 03:43:02;;;;;;;3.08;2.40;;;;;;;6.49;84.54;99534.57;2823966;84;21600;-65
2021/03/16 03:47:09;;;;;;;2.40;1.17;;;;;;;6.51;84.27;99544.54;2823989;84;21205;-66
2021/03/16 03:51:13;;;;;;;1.60;1.20;;;;;;;6.48;83.58;99542.14;2818189;83;21104;-66
2021/03/16 03:55:19;;;;;;;0.80;0.80;;;;;;;6.41;83.35;99548.37;2788957;85;21151;-66
2021/03/16 03:59:25;;;;;;;1.10;0.40;;;;;;;6.37;83.02;99553.53;2787512;85;21132;-67
2021/03/16 04:03:27;;;;;;;1.10;0.33;;;;;;;6.34;82.82;99556.41;2739834;86;21555;-67
2021/03/16 04:07:33;;;;;;;0.78;0.50;;;;;;;6.27;82.72;99559.13;2765784;86;21153;-66
2021/03/16 04:11:37;;;;;;;0.65;0.35;;;;;;;6.21;82.47;99559.14;2759055;86;21151;-66
2021/03/16 04:15:40;;;;;;;1.62;0.68;;;;;;;6.11;82.80;99564.73;2709729;87;21186;-66
2021/03/16 04:19:44;;;;;;;0.62;0.40;;;;;;;6.05;82.90;99567.84;2765642;86;21136;-64
2021/03/16 04:23:49;;;;;;;0.68;0.40;;;;;;;6.03;83.22;99554.74;2765289;86;21090;-64
2021/03/16 04:27:52;;;;;;;1.12;0.50;;;;;;;5.85;83.49;99565.67;2718103;87;21125;-64
2021/03/16 04:31:55;;;;;;;0.57;0.40;;;;;;;5.76;84.06;99568.16;2765465;86;21082;-65
2021/03/16 04:35:59;;;;;;;2.00;1.62;;;;;;;5.64;84.53;99582.63;2758870;86;21141;-64
2021/03/16 04:40:06;;;;;;;2.17;1.57;;;;;;;5.60;84.97;99595.68;2765560;86;21133;-64
2021/03/16 04:44:09;;;;;;;2.77;1.98;;;;;;;5.56;85.22;99581.00;2758569;86;21637;-64
2021/03/16 04:48:12;;;;;;;2.77;1.70;;;;;;;5.57;85.46;99587.96;2758695;86;21130;-64
2021/03/16 04:52:15;;;;;;;2.42;2.10;;;;;;;5.51;85.75;99587.95;2758426;85;21114;-64
2021/03/16 04:56:21;;;;;;;3.67;2.50;;;;;;;5.50;86.06;99591.55;2759396;86;21166;-64
2021/03/16 05:00:25;;;;;;;5.75;2.70;;;;;;;5.47;86.21;99589.09;2762162;86;21164;-64
2021/03/16 05:04:29;;;;;;;3.67;2.25;;;;;;;5.42;86.90;99604.42;2738462;86;21171;-64
2021/03/16 05:08:32;;;;;;;5.30;3.58;;;;;;;5.42;86.98;99606.59;2788983;85;21134;-64
2021/03/16 05:12:35;;;;;;;7.15;2.67;;;;;;;5.43;87.13;99607.42;2788750;85;21144;-66
2021/03/16 05:16:38;;;;;;;4.22;3.35;;;;;;;5.44;87.19;99611.74;2741102;86;21751;-67
2021/03/16 05:20:41;;;;;;;4.70;3.37;;;;;;;5.46;87.28;99620.39;2740761;86;21147;-66
2021/03/16 05:24:46;;;;;;;4.03;3.37;;;;;;;5.44;87.46;99624.94;2745014;86;21590;-65
2021/03/16 05:28:51;;;;;;;4.45;4.03;;;;;;;5.46;87.64;99625.66;2811379;84;21190;-66
2021/03/16 05:32:57;;;;;;;8.65;4.75;;;;;;;5.46;87.99;99630.12;2811887;84;21777;-63
2021/03/16 05:37:00;;;;;;;4.67;4.28;;;;;;;5.46;88.14;99645.45;2765762;86;21078;-63
2021/03/16 05:41:04;;;;;;;5.28;4.75;;;;;;;5.43;87.21;99655.77;2786945;85;21191;-64
2021/03/16 05:45:09;;;;;;;9.78;7.60;;;;;;;5.31;86.11;99654.47;2743305;86;21087;-64
2021/03/16 05:49:16;;;;;;;8.58;7.20;;;;;;;5.15;86.23;99654.21;2746703;86;21147;-63
2021/03/16 05:53:19;;;;;;;9.58;6.30;;;;;;;5.10;86.91;99664.21;2806251;84;21142;-62
2021/03/16 05:57:22;;;;;;;6.45;4.95;;;;;;;5.13;87.20;99662.70;2818313;84;21620;-63
2021/03/16 06:01:27;;;;;;;6.53;5.75;;;;;;;5.17;87.33;99674.72;2811866;84;21131;-64
2021/03/16 06:05:30;;;;;;;6.85;5.17;;;;;;;5.22;87.36;99673.09;2812126;84;21154;-64
2021/03/16 06:09:36;;;;;;;8.63;7.67;;;;;;;5.27;87.37;99683.66;2811954;84;21083;-62
2021/03/16 06:13:54;;;;;;;10.55;7.97;;;;;;;5.33;87.47;99687.67;2812174;84;21134;-62
2021/03/16 06:17:57;;;;;;;10.28;9.20;;;;;;;5.37;87.43;99687.83;2811963;84;21116;-64
2021/03/16 06:22:05;;;;;;;14.47;9.55;;;;;;;5.45;87.42;99700.48;2812547;84;21122;-65
2021/03/16 06:26:14;;;;;;;8.63;6.97;;;;;;;5.47;87.61;99693.79;2812070;84;21115;-63
2021/03/16 06:30:26;;;;;;;7.90;6.47;;;;;;;5.56;87.81;99691.34;2811766;84;21198;-64
2021/03/16 06:34:29;;;;;;;8.28;7.40;;;;;;;5.65;87.77;99701.73;2819521;84;21608;-63
2021/03/16 06:38:34;;;;;;;7.28;5.75;;;;;;;5.72;87.82;99696.87;2819025;84;21167;-64
2021/03/16 06:42:37;;;;;;;7.40;5.25;;;;;;;5.79;88.00;99703.38;2821280;84;21150;-62
2021/03/16 06:46:41;;;;;;;7.50;4.50;;;;;;;5.93;88.04;99701.56;2820884;84;21142;-65
2021/03/16 06:50:45;;;;;;;9.45;5.97;;;;;;;6.03;87.83;99710.52;2821003;84;21161;-63
2021/03/16 06:54:48;;;;;;;7.00;4.67;;;;;;;6.11;87.52;99718.75;2821131;84;21209;-63
2021/03/16 06:58:51;;;;;;;8.43;4.30;;;;;;;6.14;87.39;99726.45;2821355;84;21118;-63
2021/03/16 07:02:54;;;;;;;4.85;4.30;;;;;;;6.24;87.09;99732.36;2821231;84;21799;-64
2021/03/16 07:06:59;;;;;;;7.47;4.85;;;;;;;6.20;86.69;99726.95;2821548;84;21530;-64
2021/03/16 07:11:10;;;;;;;4.12;3.12;;;;;;;6.24;86.57;99725.77;2821139;84;21178;-63
2021/03/16 07:15:14;;;;;;;6.35;4.30;;;;;;;6.26;86.45;99734.42;2821239;84;21143;-62
2021/03/16 07:19:20;;;;;;;7.00;4.67;;;;;;;6.25;86.27;99736.69;2821333;84;21155;-64
2021/03/16 07:23:26;;;;;;;7.80;4.78;;;;;;;6.29;86.67;99737.69;2821496;84;21099;-62
2021/03/16 07:27:29;;;;;;;5.27;3.33;;;;;;;6.40;86.72;99746.15;2821023;84;21170;-64
2021/03/16 07:31:37;;;;;;;5.55;4.42;;;;;;;6.42;85.93;99752.66;2797009;84;21136;-63
2021/03/16 07:35:42;;;;;;;9.23;6.05;;;;;;;6.46;85.77;99763.82;2821357;84;21185;-63
2021/03/16 07:39:45;;;;;;;7.37;6.25;;;;;;;6.46;85.43;99766.00;2821326;84;21216;-65
2021/03/16 07:43:49;;;;;;;10.50;9.10;;;;;;;6.52;85.67;99762.90;2821461;84;21115;-65
2021/03/16 07:47:52;;;;;;;11.48;7.67;;;;;;;6.59;85.49;99770.40;2821045;84;21588;-63
2021/03/16 07:51:57;;;;;;;19.25;9.90;;;;;;;6.62;85.73;99763.56;2821178;84;21158;-65
2021/03/16 07:56:10;;;;;;;12.03;8.33;;;;;;;6.68;85.73;99762.63;2821341;84;21190;-63
2021/03/16 08:00:16;;;;;;;8.90;6.58;;;;;;;6.64;85.11;99773.04;2821440;84;21099;-63
2021/03/16 08:04:20;;;;;;;12.53;7.30;;;;;;;6.67;85.53;99778.09;2818762;84;21580;-64
2021/03/16 08:08:23;;;;;;;10.08;7.33;;;;;;;6.70;85.46;99788.93;2821311;84;21138;-63
2021/03/16 08:12:31;;;;;;;10.43;6.58;;;;;;;6.68;85.70;99787.74;2821385;84;21639;-63
2021/03/16 08:16:44;;;;;;;9.13;6.83;;;;;;;6.63;85.68;99793.00;2820844;84;21114;-63
2021/03/16 08:20:47;;;;;;;7.17;6.03;;;;;;;6.64;86.03;99797.32;2821135;84;21205;-64
2021/03/16 08:25:00;;;;;;;6.50;5.58;;;;;;;6.53;85.82;99783.58;2821196;84;21170;-62
2021/03/16 08:29:04;;;;;;;9.53;6.62;;;;;;;6.50;86.34;99812.88;2814765;84;21113;-65
2021/03/16 08:33:15;;;;;;;6.80;4.30;;;;;;;6.41;86.38;99809.09;2827883;84;21128;-62
2021/03/16 08:37:27;;;;;;;5.37;4.87;;;;;;;6.34;86.40;99808.69;2856994;83;21141;-63
2021/03/16 08:41:32;;;;;;;8.68;6.08;;;;;;;6.28;86.74;99819.67;2857056;83;21115;-64
2021/03/16 08:45:37;;;;;;;4.30;3.85;;;;;;;6.31;87.05;99828.72;2856899;83;21180;-64
2021/03/16 08:49:43;;;;;;;5.70;4.70;;;;;;;6.26;87.27;99829.50;2857054;83;21145;-63
2021/03/16 08:53:47;;;;;;;4.92;3.95;;;;;;;6.23;87.22;99831.91;2858269;83;21148;-63
2021/03/16 08:57:52;;;;;;;11.75;9.63;;;;;;;6.23;87.96;99837.66;2831096;84;21125;-64
2021/03/16 09:01:55;;;;;;;7.87;5.30;;;;;;;6.32;87.96;99846.26;2781300;85;21509;-63
2021/03/16 09:05:58;;;;;;;5.97;5.33;;;;;;;6.37;87.85;99840.16;2831121;84;21632;-63
2021/03/16 09:10:11;;;;;;;4.55;3.33;;;;;;;6.37;87.56;99855.16;2792127;84;21138;-63
2021/03/16 09:14:19;;;;;;;4.33;3.05;;;;;;;6.37;87.48;99856.02;2780141;85;21593;-64
2021/03/16 09:18:22;;;;;;;6.45;5.60;;;;;;;6.38;87.83;99859.48;2783383;85;21601;-64
2021/03/16 09:22:25;;;;;;;1.57;1.42;;;;;;;6.41;87.68;99864.58;2783734;85;21585;-62
2021/03/16 09:26:28;;;;;;;2.83;2.40;;;;;;;6.39;87.41;99863.84;2808110;84;21146;-64
2021/03/16 09:30:45;;;;;;;5.87;2.17;;;;;;;6.40;87.13;99873.45;2808121;84;21596;-63
2021/03/16 09:34:50;;;;;;;3.77;1.92;;;;;;;6.32;86.99;99874.00;2808169;84;22254;-63
2021/03/16 09:38:58;;;;;;;3.15;2.30;;;;;;;6.39;86.65;99877.88;2813614;84;22428;-63
2021/03/16 09:43:02;;;;;;;3.27;2.27;;;;;;;6.48;86.54;99877.70;2825126;84;21146;-63
2021/03/16 09:47:07;;;;;;;4.67;3.52;;;;;;;6.49;86.70;99887.81;2824394;84;21190;-62
2021/03/16 09:51:14;;;;;;;3.12;2.00;;;;;;;6.49;87.05;99890.45;2800642;84;21428;-63
2021/03/16 09:55:17;;;;;;;3.60;2.45;;;;;;;6.48;86.70;99891.38;2824218;84;21577;-64
2021/03/16 09:59:22;;;;;;;2.50;2.08;;;;;;;6.54;86.92;99894.44;2824263;84;21556;-63
2021/03/16 10:03:27;;;;;;;3.47;2.70;;;;;;;6.61;86.79;99886.09;2823952;84;21142;-64
2021/03/16 10:07:33;;;;;;;3.20;2.35;;;;;;;6.55;86.12;99904.55;2824250;84;21145;-64
2021/03/16 10:11:37;;;;;;;3.30;2.05;;;;;;;6.59;86.19;99908.65;2824338;84;21549;-63
2021/03/16 10:15:43;;;;;;;2.30;1.52;;;;;;;6.56;85.96;99910.19;2824501;84;21603;-64
2021/03/16 10:19:53;;;;;;;8.70;5.22;;;;;;;6.52;85.37;99920.62;2824829;84;21114;-64
2021/03/16 10:28:13;;;;;;;5.80;3.10;;;;;;;6.63;85.70;99923.33;2998008;77;22481;-62
2021/03/16 10:32:16;;;;;;;1.75;1.40;;;;;;;6.63;85.83;99927.78;2952397;80;21110;-62
2021/03/16 10:36:21;;;;;;;4.37;3.02;;;;;;;6.60;86.25;99942.05;2952493;80;21619;-62
2021/03/16 10:40:26;;;;;;;5.42;2.70;;;;;;;6.66;86.05;99936.81;2952541;80;21074;-62
2021/03/16 10:44:29;;;;;;;3.02;1.55;;;;;;;6.58;85.64;99936.03;2952286;79;21131;-63
2021/03/16 10:48:32;;;;;;;3.67;3.37;;;;;;;6.59;86.24;99949.61;2939012;80;21153;-63
2021/03/16 10:52:35;;;;;;;4.97;1.87;;;;;;;6.63;86.18;99955.53;2901642;82;21081;-64
2021/03/16 10:56:38;;;;;;;4.12;2.65;;;;;;;6.62;86.15;99956.00;2902056;81;21508;-62
2021/03/16 11:00:42;;;;;;;3.00;2.50;;;;;;;6.60;86.04;99967.16;2901859;82;21082;-62
2021/03/16 11:04:46;;;;;;;11.38;7.47;;;;;;;6.55;86.20;99964.00;2901826;81;21089;-62
2021/03/16 11:08:49;;;;;;;3.90;3.10;;;;;;;6.51;86.13;99960.72;2901711;82;21584;-61
2021/03/16 11:12:53;;;;;;;6.75;4.47;;;;;;;6.49;85.65;99976.33;2901696;82;21082;-62
2021/03/16 11:16:56;;;;;;;6.33;3.80;;;;;;;6.45;85.79;99978.33;2901582;82;21118;-61
2021/03/16 11:20:59;;;;;;;4.10;2.98;;;;;;;6.46;85.52;99980.48;2902155;82;21165;-63
2021/03/16 11:25:05;;;;;;;3.00;2.72;;;;;;;6.39;85.12;99980.92;2905098;81;21136;-63
2021/03/16 11:29:08;;;;;;;6.10;4.85;;;;;;;6.43;85.12;99982.39;2924916;81;21567;-64
2021/03/16 11:33:12;;;;;;;3.15;1.98;;;;;;;6.37;85.30;99988.11;2925101;81;21144;-63
2021/03/16 11:37:15;;;;;;;1.85;1.22;;;;;;;6.33;84.79;99989.28;2924481;81;21164;-64
2021/03/16 11:41:19;;;;;;;1.75;1.62;;;;;;;6.32;84.90;99996.84;2924044;81;21117;-62
2021/03/16 11:45:23;;;;;;;1.02;0.93;;;;;;;6.38;85.81;99995.09;2923878;81;21113;-63
2021/03/16 11:49:26;;;;;;;2.25;1.87;;;;;;;6.33;86.43;100002.49;2923828;80;21657;-64
2021/03/16 11:53:29;;;;;;;1.80;1.25;;;;;;;6.34;85.77;100004.18;2924097;81;21116;-63
2021/03/16 11:57:33;;;;;;;2.40;1.62;;;;;;;6.22;85.64;100007.65;2923643;81;21101;-62
2021/03/16 12:01:37;;;;;;;2.40;1.35;;;;;;;6.32;86.04;100003.91;2923885;81;21634;-63
2021/03/16 12:05:42;;;;;;;2.42;1.87;;;;;;;6.34;85.02;100013.42;2921750;81;21144;-63
2021/03/16 12:09:46;;;;;;;2.80;2.00;;;;;;;6.24;84.59;100024.23;2923407;81;21523;-62
2021/03/16 12:13:49;;;;;;;2.00;1.80;;;;;;;6.27;84.79;100020.06;2923531;81;21516;-64
2021/03/16 12:17:52;;;;;;;2.70;2.05;;;;;;;6.14;85.01;100022.69;2923031;81;21607;-62
2021/03/16 12:21:57;;;;;;;2.37;2.10;;;;;;;6.29;85.20;100022.15;2923372;81;21132;-61
2021/03/16 12:26:02;;;;;;;2.25;1.40;;;;;;;6.39;85.09;100030.30;2923170;81;21168;-64
2021/03/16 12:30:08;;;;;;;2.92;1.70;;;;;;;6.42;84.99;100020.34;2923193;81;21540;-64
2021/03/16 12:34:11;;;;;;;;;;;;;;;6.40;84.69;100039.41;2925877;81;21575;-63
2021/03/16 12:38:14;;;;;;;3.90;1.65;;;;;;;6.37;84.29;100035.67;2923270;81;20189;-63
2021/03/16 12:42:17;;;;;;;2.42;2.10;;;;;;;6.27;84.18;100044.69;2923306;81;21117;-64
2021/03/16 12:47:32;;;;;;;6.12;2.80;;;;;;;6.25;84.50;100042.63;2923306;81;21520;-62
2021/03/16 12:52:01;;;;;;;1.85;1.72;;;;;;;6.22;84.49;100048.59;2923506;81;21180;-61
2021/03/16 12:56:05;;;;;;;1.90;1.80;;;;;;;6.19;84.41;100039.56;2923251;81;21559;-62
2021/03/16 13:00:11;;;;;;;6.47;5.70;;;;;;;6.11;84.69;100051.95;2923273;81;21120;-62
2021/03/16 13:04:14;;;;;;;;;;;;;;;6.06;84.60;100056.70;2888892;81;21152;-62
2021/03/16 13:08:18;;;;;;;5.28;4.67;;;;;;;6.03;85.37;100053.78;2873033;82;20129;-64
2021/03/16 13:12:21;;;;;;;2.50;2.30;;;;;;;5.98;85.24;100065.10;2815497;84;21182;-64
2021/03/16 13:16:25;;;;;;;3.90;2.67;;;;;;;6.00;84.99;100069.80;2815391;84;21575;-63
2021/03/16 13:20:28;;;;;;;5.65;3.05;;;;;;;5.96;84.83;100073.59;2766233;86;21159;-63
2021/03/16 13:24:33;;;;;;;5.83;2.52;;;;;;;6.07;84.62;100077.71;2843880;83;21153;-64
2021/03/16 13:28:37;;;;;;;5.30;3.62;;;;;;;6.13;84.71;100076.00;2819864;83;21132;-61
2021/03/16 13:32:42;;;;;;;4.80;4.40;;;;;;;6.26;85.12;100076.48;2845809;83;21177;-62
2021/03/16 13:36:47;;;;;;;6.83;3.77;;;;;;;6.37;84.94;100080.58;2794778;85;21153;-62
2021/03/16 13:40:52;;;;;;;12.25;4.97;;;;;;;6.40;84.33;100079.54;2800462;83;21575;-63
2021/03/16 13:44:57;;;;;;;13.58;6.80;;;;;;;6.43;84.42;100076.69;2814338;83;21122;-61
2021/03/16 13:49:01;;;;;;;3.65;3.15;;;;;;;6.45;83.92;100081.38;2899804;80;21113;-61
2021/03/16 13:53:05;;;;;;;3.35;2.35;;;;;;;6.53;83.50;100090.12;2897262;82;21113;-62
2021/03/16 13:57:08;;;;;;;26.02;23.27;;;;;;;6.59;83.81;100094.14;2878422;82;21167;-62
2021/03/16 14:01:13;;;;;;;44.48;33.00;;;;;;;6.62;84.07;100103.18;2858605;82;21558;-61
2021/03/16 14:05:18;;;;;;;17.57;11.68;;;;;;;6.59;83.58;100104.22;2859073;82;21127;-61
2021/03/16 14:09:22;;;;;;;8.38;7.28;;;;;;;6.39;83.46;100120.95;2858708;83;21143;-62
2021/03/16 14:13:26;;;;;;;8.15;6.65;;;;;;;6.39;83.97;100127.56;2858678;82;21582;-61
2021/03/16 14:17:30;;;;;;;7.78;4.47;;;;;;;6.52;84.58;100109.57;2854990;82;21597;-64
2021/03/16 14:21:41;;;;;;;6.28;5.17;;;;;;;6.51;83.82;100121.09;2853112;82;21174;-67
2021/03/16 14:25:44;;;;;;;6.33;5.42;;;;;;;6.45;84.69;100122.80;2857506;82;21159;-67
2021/03/16 14:29:47;;;;;;;17.23;10.55;;;;;;;6.48;84.58;100133.16;2858757;82;21167;-66
2021/03/16 14:33:52;;;;;;;6.42;5.62;;;;;;;6.39;84.21;100139.45;2859023;83;21104;-66
2021/03/16 14:37:57;;;;;;;10.75;5.45;;;;;;;6.30;83.87;100140.08;2858956;83;21108;-65
2021/03/16 14:42:02;;;;;;;11.08;6.10;;;;;;;6.28;84.26;100141.94;2842452;83;21096;-67
2021/03/16 14:46:06;;;;;;;8.98;5.35;;;;;;;6.19;83.89;100151.81;2907021;81;21126;-65
2021/03/16 14:50:11;;;;;;;7.55;5.80;;;;;;;6.23;84.66;100151.98;2933816;79;21122;-65
2021/03/16 14:54:13;;;;;;;6.90;5.28;;;;;;;6.15;84.42;100145.87;2933968;81;21083;-67
2021/03/16 14:58:16;;;;;;;8.65;4.50;;;;;;;6.09;84.58;100162.13;2934127;81;21145;-64
2021/03/16 15:02:19;;;;;;;7.80;5.72;;;;;;;6.03;84.51;100167.82;2930561;81;21634;-65
2021/03/16 15:06:23;;;;;;;6.20;5.42;;;;;;;5.95;84.70;100153.27;2899743;82;21560;-66
2021/03/16 15:10:26;;;;;;;6.85;6.22;;;;;;;5.81;84.58;100171.33;2900455;82;21109;-64
2021/03/16 15:14:29;;;;;;;8.98;6.05;;;;;;;5.80;84.64;100152.47;2900893;82;21097;-64
2021/03/16 15:18:33;;;;;;;8.08;6.55;;;;;;;5.79;84.67;100161.80;2900695;82;21583;-65
2021/03/16 15:22:37;;;;;;;7.22;5.15;;;;;;;5.79;84.99;100168.39;2900784;82;21141;-66
2021/03/16 15:26:41;;;;;;;7.78;6.20;;;;;;;5.83;84.99;100168.59;2900593;82;21173;-65
2021/03/16 15:30:46;;;;;;;7.47;5.47;;;;;;;5.82;85.01;100183.58;2900659;82;21157;-64
2021/03/16 15:34:49;;;;;;;5.65;4.28;;;;;;;5.88;85.21;100174.88;2900347;82;21524;-64
2021/03/16 15:38:54;;;;;;;9.35;6.62;;;;;;;5.92;85.03;100183.00;2899297;82;21113;-67
2021/03/16 15:42:57;;;;;;;10.68;9.10;;;;;;;6.03;85.23;100183.17;2900156;82;21145;-64
2021/03/16 15:47:00;;;;;;;12.55;8.33;;;;;;;6.08;85.09;100174.47;2900707;82;21122;-64
2021/03/16 15:51:06;;;;;;;16.80;12.93;;;;;;;6.07;85.04;100179.38;2900844;80;21121;-63
2021/03/16 15:55:12;;;;;;;8.80;7.78;;;;;;;6.16;84.80;100191.64;2901073;81;21089;-63
2021/03/16 15:59:14;;;;;;;14.13;10.33;;;;;;;6.14;84.66;100192.58;2900974;81;21078;-64
2021/03/16 16:03:18;;;;;;;11.28;9.05;;;;;;;6.19;84.93;100198.03;2900748;82;21161;-65
2021/03/16 16:07:21;;;;;;;8.00;7.20;;;;;;;6.20;84.99;100199.27;2900694;82;21552;-65
2021/03/16 16:11:24;;;;;;;9.50;7.17;;;;;;;6.16;84.83;100199.07;2900860;82;21105;-66
2021/03/16 16:15:28;;;;;;;4.90;3.95;;;;;;;6.11;84.86;100207.77;2900843;81;21160;-65
2021/03/16 16:19:31;;;;;;;5.22;3.08;;;;;;;5.93;84.24;100213.25;2900871;82;21415;-64
2021/03/16 16:23:35;;;;;;;7.03;3.90;;;;;;;5.80;84.06;100206.59;2900614;82;21117;-64
2021/03/16 16:27:39;;;;;;;6.65;5.80;;;;;;;5.74;84.16;100213.58;2900543;80;21760;-64
2021/03/16 16:31:42;;;;;;;7.08;5.87;;;;;;;5.83;85.06;100216.11;2900805;82;21145;-64
2021/03/16 16:35:46;;;;;;;4.97;4.47;;;;;;;5.88;85.34;100220.63;2900742;82;21093;-64
2021/03/16 16:39:51;;;;;;;3.95;3.60;;;;;;;5.91;84.96;100226.19;2900949;82;21179;-64
2021/03/16 16:43:54;;;;;;;6.87;5.55;;;;;;;5.96;85.23;100226.74;2900619;81;21137;-64
2021/03/16 16:47:58;;;;;;;5.03;4.40;;;;;;;5.90;84.90;100229.29;2900771;80;21151;-64
2021/03/16 16:52:03;;;;;;;5.35;3.87;;;;;;;5.86;84.86;100235.23;2900477;82;21121;-64
2021/03/16 16:56:06;;;;;;;10.53;7.47;;;;;;;5.93;84.96;100241.46;2900161;82;21090;-63
2021/03/16 17:00:11;;;;;;;6.25;4.45;;;;;;;5.94;84.93;100242.67;2900276;82;22472;-64
2021/03/16 17:04:17;;;;;;;5.28;4.78;;;;;;;5.93;84.34;100250.22;2933525;80;21582;-65
2021/03/16 17:08:20;;;;;;;7.37;5.42;;;;;;;5.92;84.26;100252.97;2947705;80;21125;-65
2021/03/16 17:12:23;;;;;;;6.70;5.00;;;;;;;5.86;84.22;100257.67;2947727;80;21141;-66
2021/03/16 17:16:26;;;;;;;8.13;5.70;;;;;;;5.81;84.26;100267.67;2947539;80;21540;-64
2021/03/16 17:20:29;;;;;;;5.05;4.53;;;;;;;5.77;84.15;100255.62;2947713;80;21090;-63
2021/03/16 17:24:32;;;;;;;6.78;5.58;;;;;;;5.78;84.37;100255.99;2947540;80;21141;-64
2021/03/16 17:28:35;;;;;;;12.98;9.25;;;;;;;5.85;84.43;100282.86;2947597;80;21543;-64
2021/03/16 17:32:40;;;;;;;20.72;13.18;;;;;;;5.80;84.46;100276.54;2947692;80;21118;-65
2021/03/16 17:36:45;;;;;;;14.38;10.82;;;;;;;5.81;84.32;100279.55;2947907;80;21117;-64
2021/03/16 17:40:48;;;;;;;24.57;17.73;;;;;;;5.85;84.28;100286.33;2936615;80;21525;-63
2021/03/16 17:44:51;;;;;;;22.82;15.30;;;;;;;5.83;84.29;100282.94;2934283;81;21169;-65
2021/03/16 17:48:54;;;;;;;10.85;9.75;;;;;;;5.79;84.17;100293.33;2934419;79;21135;-64
2021/03/16 17:52:58;;;;;;;12.03;8.65;;;;;;;5.76;84.09;100298.80;2934599;81;21118;-64
2021/03/16 17:57:01;;;;;;;9.58;8.50;;;;;;;5.69;84.14;100310.20;2934543;81;21545;-63
2021/03/16 18:01:04;;;;;;;12.45;8.65;;;;;;;5.68;84.32;100307.64;2934249;81;21556;-63
2021/03/16 18:05:08;;;;;;;20.17;12.05;;;;;;;5.65;84.18;100306.51;2934580;81;21181;-65
2021/03/16 18:09:11;;;;;;;11.65;10.28;;;;;;;5.68;84.33;100305.86;2934596;81;21130;-64
2021/03/16 18:13:16;;;;;;;29.80;19.95;;;;;;;5.65;84.34;100306.05;2934231;81;21102;-65
2021/03/16 18:17:19;;;;;;;23.22;13.65;;;;;;;5.68;84.41;100308.95;2934421;81;21130;-64
2021/03/16 18:21:24;;;;;;;26.45;15.58;;;;;;;5.71;84.42;100311.44;2934342;81;21118;-63
2021/03/16 18:25:27;;;;;;;18.82;14.03;;;;;;;5.75;84.05;100316.90;2934429;81;21223;-63
2021/03/16 18:29:30;;;;;;;45.25;22.77;;;;;;;5.74;84.01;100312.56;2934163;81;21596;-64
2021/03/16 18:33:33;;;;;;;29.60;19.37;;;;;;;5.80;84.04;100315.30;2934086;81;21600;-63
2021/03/16 18:37:36;;;;;;;22.35;12.90;;;;;;;5.78;83.91;100314.06;2934540;81;21497;-65
2021/03/16 18:41:40;;;;;;;14.58;9.00;;;;;;;5.79;83.82;100315.77;2934204;81;21501;-63
2021/03/16 18:45:43;;;;;;;14.83;10.72;;;;;;;5.77;83.99;100315.01;2934707;81;21107;-63
2021/03/16 18:49:48;;;;;;;11.20;7.87;;;;;;;5.80;84.08;100305.58;2934439;79;21548;-66
2021/03/16 18:53:51;;;;;;;19.32;13.08;;;;;;;5.75;83.78;100303.70;2934636;81;21134;-65
2021/03/16 18:57:55;;;;;;;16.30;10.05;;;;;;;5.76;84.15;100304.08;2934437;81;21506;-64
2021/03/16 19:01:57;;;;;;;15.43;10.65;;;;;;;5.77;83.97;100303.59;2934479;81;21584;-63
2021/03/16 19:06:04;;;;;;;28.02;17.17;;;;;;;5.73;84.18;100298.99;2934830;81;21123;-63
2021/03/16 19:10:09;;;;;;;22.77;11.83;;;;;;;5.68;84.39;100296.62;2934492;81;21102;-63
2021/03/16 19:14:12;;;;;;;25.77;13.68;;;;;;;5.63;84.79;100301.80;2934434;81;21572;-64
2021/03/16 19:18:15;;;;;;;20.40;12.50;;;;;;;5.61;84.92;100301.05;2934659;81;21114;-64
2021/03/16 19:22:28;;;;;;;23.60;14.18;;;;;;;5.55;84.90;100305.77;2924359;80;21448;-65